Time;durP1;ratioP1;P1;durP2;ratioP2;P2;SDS_P1;SDS_P2;PMS_P1;PMS_P2;Temp;Humidity;BMP_temperature;BMP_pressure;BME280_temperature;BME280_humidity;BME280_pressure;Samples;Min_cycle;Max_cycle;Signal;HPM_P1;HPM_P2
2024/04/01 00:01:57;;;;;;;23.13;10.60;;;;;;;;;;5131881;28;20103;-58
2024/04/01 00:04:22;;;;;;;18.90;10.23;;;;;;;;;;5130849;28;20032;-60
2024/04/01 00:06:47;;;;;;;20.77;9.90;;;;;;;;;;5134557;28;20045;-58
2024/04/01 00:09:12;;;;;;;18.57;9.80;;;;;;;;;;5132377;28;20028;-59
2024/04/01 00:11:38;;;;;;;20.67;9.93;;;;;;;;;;5133520;28;20034;-59
2024/04/01 00:14:03;;;;;;;22.93;10.00;;;;;;;;;;5134103;28;20267;-58
2024/04/01 00:16:29;;;;;;;23.38;10.45;;;;;;;;;;5133355;28;20098;-57
2024/04/01 00:18:54;;;;;;;21.40;9.73;;;;;;;;;;5133574;28;20035;-59
2024/04/01 00:21:20;;;;;;;16.80;9.00;;;;;;;;;;5134422;28;20040;-56
2024/04/01 00:23:48;;;;;;;20.57;9.13;;;;;;;;;;5130794;28;20031;-58
2024/04/01 00:26:14;;;;;;;20.20;9.57;;;;;;;;;;5133736;28;20255;-59
2024/04/01 00:28:39;;;;;;;17.38;8.25;;;;;;;;;;5132687;28;20287;-59
2024/04/01 00:31:05;;;;;;;15.80;8.05;;;;;;;;;;5133570;28;20027;-59
2024/04/01 00:33:30;;;;;;;19.80;8.88;;;;;;;;;;5132612;28;20027;-59
2024/04/01 00:35:56;;;;;;;17.83;8.23;;;;;;;;;;5131282;28;20031;-59
2024/04/01 00:38:22;;;;;;;16.60;7.10;;;;;;;;;;5131613;28;20031;-56
2024/04/01 00:40:48;;;;;;;14.02;7.93;;;;;;;;;;5132094;28;20046;-59
2024/04/01 00:43:13;;;;;;;13.32;7.78;;;;;;;;;;5132810;28;20031;-56
2024/04/01 00:45:42;;;;;;;15.13;7.55;;;;;;;;;;5131670;28;20100;-58
2024/04/01 00:48:09;;;;;;;10.90;6.17;;;;;;;;;;5132296;28;20019;-57
2024/04/01 00:50:36;;;;;;;14.60;6.87;;;;;;;;;;5128580;28;20252;-54
2024/04/01 00:53:03;;;;;;;18.70;7.47;;;;;;;;;;5130765;28;20263;-58
2024/04/01 00:55:28;;;;;;;12.00;6.68;;;;;;;;;;5130563;28;20274;-57
2024/04/01 00:57:56;;;;;;;14.95;6.82;;;;;;;;;;5130340;28;20028;-58
2024/04/01 01:00:22;;;;;;;10.23;7.20;;;;;;;;;;5132092;28;20031;-58
2024/04/01 01:02:48;;;;;;;;;;;;;;;;;;5133769;28;20314;-57
2024/04/01 01:05:15;;;;;;;12.83;6.40;;;;;;;;;;5132797;28;19904;-55
2024/04/01 01:07:44;;;;;;;16.83;6.93;;;;;;;;;;5131061;28;20031;-58
2024/04/01 01:10:10;;;;;;;14.33;6.30;;;;;;;;;;5129513;28;20271;-60
2024/04/01 01:12:37;;;;;;;14.50;7.33;;;;;;;;;;5132379;28;20272;-58
2024/04/01 01:15:02;;;;;;;11.70;6.78;;;;;;;;;;5130909;28;20279;-57
2024/04/01 01:17:27;;;;;;;14.97;6.70;;;;;;;;;;5132895;28;20043;-59
2024/04/01 01:19:53;;;;;;;12.18;7.25;;;;;;;;;;5132568;28;20024;-58
2024/04/01 01:22:30;;;;;;;13.85;6.72;;;;;;;;;;5133449;28;20088;-56
2024/04/01 01:24:55;;;;;;;11.13;6.05;;;;;;;;;;5131993;28;20028;-58
2024/04/01 01:27:20;;;;;;;10.70;6.40;;;;;;;;;;5129988;28;20064;-58
2024/04/01 01:29:46;;;;;;;11.65;6.15;;;;;;;;;;5130656;28;20031;-56
2024/04/01 01:32:11;;;;;;;13.70;6.80;;;;;;;;;;5131899;28;20043;-57
2024/04/01 01:34:37;;;;;;;12.98;6.70;;;;;;;;;;5131120;28;20650;-57
2024/04/01 01:37:03;;;;;;;11.52;6.75;;;;;;;;;;5131766;28;20038;-56
2024/04/01 01:39:29;;;;;;;12.25;6.10;;;;;;;;;;5131654;28;20107;-56
2024/04/01 01:41:54;;;;;;;13.03;6.10;;;;;;;;;;5128548;27;20031;-59
2024/04/01 01:44:20;;;;;;;17.37;6.37;;;;;;;;;;5129251;28;20314;-59
2024/04/01 01:46:46;;;;;;;12.33;5.67;;;;;;;;;;5129509;28;20334;-58
2024/04/01 01:49:12;;;;;;;12.57;6.67;;;;;;;;;;5127129;28;20027;-58
2024/04/01 01:51:39;;;;;;;10.90;6.00;;;;;;;;;;5130769;28;20266;-58
2024/04/01 01:54:05;;;;;;;10.40;6.23;;;;;;;;;;5130995;28;20031;-57
2024/04/01 01:56:31;;;;;;;18.45;7.18;;;;;;;;;;5130337;28;20335;-58
2024/04/01 01:58:57;;;;;;;10.32;5.95;;;;;;;;;;5130656;28;20035;-58
2024/04/01 02:01:23;;;;;;;10.38;6.07;;;;;;;;;;5129279;28;20110;-57
2024/04/01 02:03:48;;;;;;;10.10;5.57;;;;;;;;;;5131130;28;20387;-56
2024/04/01 02:06:14;;;;;;;14.27;6.17;;;;;;;;;;5113688;28;20291;-57
2024/04/01 02:08:39;;;;;;;10.00;5.68;;;;;;;;;;5130194;28;20027;-59
2024/04/01 02:11:05;;;;;;;12.20;5.22;;;;;;;;;;5131696;28;20036;-57
2024/04/01 02:13:30;;;;;;;12.35;5.60;;;;;;;;;;5131902;28;20108;-59
2024/04/01 02:16:06;;;;;;;11.30;5.18;;;;;;;;;;5131939;28;20046;-58
2024/04/01 02:18:31;;;;;;;9.73;5.67;;;;;;;;;;5129572;28;20035;-57
2024/04/01 02:21:01;;;;;;;11.50;6.07;;;;;;;;;;5131041;28;20264;-58
2024/04/01 02:23:33;;;;;;;9.93;5.00;;;;;;;;;;5130975;28;20027;-59
2024/04/01 02:25:59;;;;;;;8.23;5.50;;;;;;;;;;5130537;28;20255;-59
2024/04/01 02:28:24;;;;;;;13.75;5.80;;;;;;;;;;5130683;28;20279;-60
2024/04/01 02:30:50;;;;;;;9.10;5.20;;;;;;;;;;5127429;28;20034;-56
2024/04/01 02:33:15;;;;;;;11.07;4.93;;;;;;;;;;5132146;28;20024;-55
2024/04/01 02:35:41;;;;;;;11.43;5.03;;;;;;;;;;5132304;28;20028;-58
2024/04/01 02:38:06;;;;;;;7.65;4.68;;;;;;;;;;5116794;28;20043;-58
2024/04/01 02:40:31;;;;;;;8.80;4.87;;;;;;;;;;5128466;28;20031;-55
2024/04/01 02:42:57;;;;;;;10.20;4.97;;;;;;;;;;5133663;28;20027;-57
2024/04/01 02:45:22;;;;;;;11.32;4.93;;;;;;;;;;5126573;28;20063;-59
2024/04/01 02:47:48;;;;;;;7.72;4.72;;;;;;;;;;5130757;28;20035;-59
2024/04/01 02:50:13;;;;;;;7.10;4.40;;;;;;;;;;5132054;28;20044;-57
2024/04/01 02:52:39;;;;;;;6.85;3.85;;;;;;;;;;5131341;28;20476;-58
2024/04/01 02:55:05;;;;;;;7.43;4.47;;;;;;;;;;5134882;28;20031;-59
2024/04/01 02:57:31;;;;;;;5.95;4.57;;;;;;;;;;5126508;28;20028;-58
2024/04/01 02:59:56;;;;;;;6.97;4.03;;;;;;;;;;5117295;28;20042;-59
2024/04/01 03:02:21;;;;;;;8.20;4.20;;;;;;;;;;5135149;28;20028;-58
2024/04/01 03:04:46;;;;;;;8.10;4.30;;;;;;;;;;5135305;28;20083;-57
2024/04/01 03:07:12;;;;;;;8.23;4.20;;;;;;;;;;5133091;28;20024;-55
2024/04/01 03:09:37;;;;;;;9.73;3.93;;;;;;;;;;5135359;28;20120;-59
2024/04/01 03:12:02;;;;;;;9.07;4.03;;;;;;;;;;5132620;28;20028;-58
2024/04/01 03:14:27;;;;;;;8.30;4.20;;;;;;;;;;5135023;28;20087;-56
2024/04/01 03:16:53;;;;;;;6.00;3.73;;;;;;;;;;5134600;28;20031;-59
2024/04/01 03:19:18;;;;;;;15.63;4.40;;;;;;;;;;5135083;28;20039;-57
2024/04/01 03:21:43;;;;;;;8.00;4.13;;;;;;;;;;5129489;28;20024;-57
2024/04/01 03:24:09;;;;;;;8.70;4.20;;;;;;;;;;5139326;28;20028;-57
2024/04/01 03:26:34;;;;;;;6.18;4.20;;;;;;;;;;5139003;28;20039;-61
2024/04/01 03:29:00;;;;;;;7.33;3.67;;;;;;;;;;5130745;28;20043;-56
2024/04/01 03:31:25;;;;;;;7.77;4.00;;;;;;;;;;5130621;28;20039;-58
2024/04/01 03:33:51;;;;;;;7.30;3.60;;;;;;;;;;5148517;27;20070;-55
2024/04/01 03:36:16;;;;;;;6.23;3.70;;;;;;;;;;5138997;28;20043;-57
2024/04/01 03:38:41;;;;;;;5.50;3.73;;;;;;;;;;5138535;28;20113;-58
2024/04/01 03:41:06;;;;;;;11.93;3.93;;;;;;;;;;5134201;28;20053;-58
2024/04/01 03:43:32;;;;;;;6.65;3.80;;;;;;;;;;5138799;28;20028;-56
2024/04/01 03:45:58;;;;;;;7.33;4.13;;;;;;;;;;5135949;28;20028;-59
2024/04/01 03:48:24;;;;;;;11.55;4.03;;;;;;;;;;5138495;28;20256;-59
2024/04/01 03:50:50;;;;;;;5.80;4.10;;;;;;;;;;5138747;28;20031;-59
2024/04/01 03:53:15;;;;;;;6.50;3.88;;;;;;;;;;5129264;28;20031;-57
2024/04/01 03:55:41;;;;;;;8.48;4.00;;;;;;;;;;5138547;28;20096;-59
2024/04/01 03:58:06;;;;;;;6.70;3.83;;;;;;;;;;5137699;28;20024;-58
2024/04/01 04:00:34;;;;;;;5.68;3.50;;;;;;;;;;5136890;28;20036;-56
2024/04/01 04:03:00;;;;;;;5.20;3.87;;;;;;;;;;5138479;28;20041;-58
2024/04/01 04:05:25;;;;;;;6.93;4.60;;;;;;;;;;5134653;28;20288;-57
2024/04/01 04:07:51;;;;;;;10.17;4.47;;;;;;;;;;5132962;28;20287;-57
2024/04/01 04:10:17;;;;;;;7.20;4.03;;;;;;;;;;5120731;28;20405;-58
2024/04/01 04:12:42;;;;;;;12.32;5.75;;;;;;;;;;5130089;28;20279;-56
2024/04/01 04:15:09;;;;;;;6.67;3.47;;;;;;;;;;5124846;28;20028;-57
2024/04/01 04:17:35;;;;;;;5.43;3.57;;;;;;;;;;5123737;28;20048;-57
2024/04/01 04:20:00;;;;;;;6.03;3.67;;;;;;;;;;5131398;28;20268;-62
2024/04/01 04:22:26;;;;;;;7.03;3.57;;;;;;;;;;5136960;28;20311;-57
2024/04/01 04:24:52;;;;;;;7.50;3.43;;;;;;;;;;5138232;28;20322;-57
2024/04/01 04:27:17;;;;;;;6.07;3.95;;;;;;;;;;5137878;28;20028;-57
2024/04/01 04:29:42;;;;;;;9.80;4.33;;;;;;;;;;5133030;28;20109;-57
2024/04/01 04:32:09;;;;;;;5.72;3.85;;;;;;;;;;5131697;28;20083;-58
2024/04/01 04:34:35;;;;;;;8.77;3.33;;;;;;;;;;5137890;28;20108;-57
2024/04/01 04:37:00;;;;;;;8.07;3.90;;;;;;;;;;5137766;28;20318;-56
2024/04/01 04:39:26;;;;;;;9.83;3.43;;;;;;;;;;5135683;28;20268;-57
2024/04/01 04:41:51;;;;;;;13.27;5.03;;;;;;;;;;5137632;28;20286;-58
2024/04/01 04:44:17;;;;;;;8.17;3.80;;;;;;;;;;5137723;28;20294;-58
2024/04/01 04:46:42;;;;;;;5.87;3.67;;;;;;;;;;5137651;28;20276;-52
2024/04/01 04:49:08;;;;;;;5.40;3.75;;;;;;;;;;5125500;28;20096;-57
2024/04/01 04:51:33;;;;;;;5.90;3.53;;;;;;;;;;5131839;28;20032;-56
2024/04/01 04:53:59;;;;;;;5.75;3.60;;;;;;;;;;5136183;28;20034;-55
2024/04/01 04:56:26;;;;;;;5.82;4.15;;;;;;;;;;5137154;28;20051;-56
2024/04/01 04:58:53;;;;;;;4.57;3.20;;;;;;;;;;5137142;28;20046;-58
2024/04/01 05:01:19;;;;;;;8.40;3.90;;;;;;;;;;5124108;28;20050;-57
2024/04/01 05:03:45;;;;;;;5.35;3.63;;;;;;;;;;5122170;28;20355;-56
2024/04/01 05:06:12;;;;;;;6.00;3.55;;;;;;;;;;5124299;28;20036;-56
2024/04/01 05:08:38;;;;;;;11.67;3.73;;;;;;;;;;5130979;28;20062;-56
2024/04/01 05:11:07;;;;;;;6.57;3.50;;;;;;;;;;5130990;28;20268;-57
2024/04/01 05:13:36;;;;;;;5.87;3.90;;;;;;;;;;5123179;28;20122;-57
2024/04/01 05:16:03;;;;;;;12.13;4.20;;;;;;;;;;5124686;28;20271;-54
2024/04/01 05:18:29;;;;;;;6.50;4.30;;;;;;;;;;5133337;28;20332;-58
2024/04/01 05:20:54;;;;;;;7.77;4.07;;;;;;;;;;5132909;28;20278;-58
2024/04/01 05:23:21;;;;;;;6.72;3.95;;;;;;;;;;5135022;28;20363;-58
2024/04/01 05:25:46;;;;;;;6.90;4.22;;;;;;;;;;5136936;28;20024;-57
2024/04/01 05:28:11;;;;;;;5.50;3.47;;;;;;;;;;5136390;28;20031;-57
2024/04/01 05:30:37;;;;;;;8.23;3.90;;;;;;;;;;5136834;28;20263;-58
2024/04/01 05:33:03;;;;;;;6.40;3.55;;;;;;;;;;5136618;28;20020;-58
2024/04/01 05:35:33;;;;;;;6.38;3.42;;;;;;;;;;5136792;28;20032;-59
2024/04/01 05:37:59;;;;;;;8.83;4.57;;;;;;;;;;5136659;28;20028;-59
2024/04/01 05:40:26;;;;;;;9.90;5.00;;;;;;;;;;5129423;28;20257;-58
2024/04/01 05:42:52;;;;;;;6.87;4.20;;;;;;;;;;5127727;28;20048;-57
2024/04/01 05:45:18;;;;;;;8.10;4.20;;;;;;;;;;5119111;28;20263;-56
2024/04/01 05:47:43;;;;;;;7.17;4.17;;;;;;;;;;5136392;28;20044;-59
2024/04/01 05:50:09;;;;;;;6.80;3.58;;;;;;;;;;5128529;28;20076;-58
2024/04/01 05:52:35;;;;;;;4.90;3.28;;;;;;;;;;5127505;28;20028;-56
2024/04/01 05:55:02;;;;;;;4.95;3.22;;;;;;;;;;5135721;28;20036;-58
2024/04/01 05:57:27;;;;;;;;;;;;;;;;;;5136531;28;20035;-57
2024/04/01 05:59:52;;;;;;;6.47;3.85;;;;;;;;;;5134182;28;19970;-53
2024/04/01 06:02:18;;;;;;;5.72;3.85;;;;;;;;;;5134142;28;20034;-57
2024/04/01 06:04:43;;;;;;;7.73;3.73;;;;;;;;;;5136309;28;20035;-58
2024/04/01 06:07:09;;;;;;;5.93;3.88;;;;;;;;;;5136159;28;20025;-58
2024/04/01 06:09:35;;;;;;;14.10;4.15;;;;;;;;;;5118041;28;20036;-59
2024/04/01 06:12:00;;;;;;;5.50;3.30;;;;;;;;;;5132887;28;20024;-59
2024/04/01 06:14:25;;;;;;;6.57;4.47;;;;;;;;;;5135913;28;20094;-58
2024/04/01 06:16:51;;;;;;;7.07;3.93;;;;;;;;;;5118314;28;20031;-57
2024/04/01 06:19:17;;;;;;;6.07;4.00;;;;;;;;;;5128273;28;20269;-57
2024/04/01 06:21:42;;;;;;;10.52;4.05;;;;;;;;;;5121193;28;20299;-56
2024/04/01 06:24:08;;;;;;;8.45;4.80;;;;;;;;;;5129986;28;20028;-57
2024/04/01 06:26:36;;;;;;;14.88;5.75;;;;;;;;;;5135477;28;20047;-57
2024/04/01 06:29:02;;;;;;;12.37;6.00;;;;;;;;;;5132232;28;20024;-55
2024/04/01 06:31:27;;;;;;;9.43;5.67;;;;;;;;;;5135656;28;20264;-59
2024/04/01 06:33:53;;;;;;;14.63;4.97;;;;;;;;;;5128659;28;20327;-58
2024/04/01 06:36:19;;;;;;;6.90;4.85;;;;;;;;;;5135721;28;20264;-56
2024/04/01 06:38:44;;;;;;;7.55;4.03;;;;;;;;;;5135343;28;20031;-57
2024/04/01 06:41:09;;;;;;;7.23;4.57;;;;;;;;;;5131888;28;20031;-60
2024/04/01 06:43:35;;;;;;;6.15;3.67;;;;;;;;;;5135169;28;20039;-59
2024/04/01 06:46:01;;;;;;;5.38;3.90;;;;;;;;;;5135258;28;20079;-58
2024/04/01 06:48:27;;;;;;;6.28;3.88;;;;;;;;;;5135419;28;20028;-57
2024/04/01 06:50:53;;;;;;;6.20;3.95;;;;;;;;;;5123358;28;20174;-60
2024/04/01 06:53:18;;;;;;;8.17;4.57;;;;;;;;;;5125123;28;20038;-57
2024/04/01 06:55:44;;;;;;;6.93;4.93;;;;;;;;;;5128750;28;20268;-58
2024/04/01 06:58:10;;;;;;;6.35;4.32;;;;;;;;;;5135364;28;20027;-58
2024/04/01 07:00:36;;;;;;;6.15;4.25;;;;;;;;;;5132425;28;20059;-56
2024/04/01 07:03:02;;;;;;;7.93;4.43;;;;;;;;;;5135190;28;20028;-56
2024/04/01 07:05:28;;;;;;;10.45;4.95;;;;;;;;;;5135287;28;20050;-56
2024/04/01 07:07:54;;;;;;;8.75;4.55;;;;;;;;;;5135371;28;20024;-59
2024/04/01 07:10:19;;;;;;;8.57;4.72;;;;;;;;;;5124034;28;20032;-60
2024/04/01 07:12:45;;;;;;;8.73;5.37;;;;;;;;;;5128458;28;20031;-58
2024/04/01 07:15:11;;;;;;;8.33;4.80;;;;;;;;;;5134167;28;20285;-58
2024/04/01 07:17:37;;;;;;;8.68;5.13;;;;;;;;;;5135096;28;20298;-58
2024/04/01 07:20:04;;;;;;;10.00;5.17;;;;;;;;;;5127303;28;20055;-59
2024/04/01 07:22:29;;;;;;;9.97;5.17;;;;;;;;;;5131211;28;20272;-61
2024/04/01 07:24:55;;;;;;;9.37;5.67;;;;;;;;;;5131497;28;20287;-58
2024/04/01 07:27:21;;;;;;;8.30;5.55;;;;;;;;;;5135174;28;20032;-57
2024/04/01 07:29:46;;;;;;;9.98;6.00;;;;;;;;;;5134336;28;20024;-59
2024/04/01 07:32:12;;;;;;;13.82;6.70;;;;;;;;;;5126786;28;20027;-57
2024/04/01 07:34:37;;;;;;;9.87;5.93;;;;;;;;;;5128760;28;20035;-59
2024/04/01 07:37:02;;;;;;;9.10;5.95;;;;;;;;;;5135022;28;20028;-57
2024/04/01 07:39:28;;;;;;;11.02;5.90;;;;;;;;;;5115011;28;20039;-58
2024/04/01 07:41:53;;;;;;;10.97;6.70;;;;;;;;;;5130710;28;20113;-58
2024/04/01 07:44:19;;;;;;;9.10;6.18;;;;;;;;;;5134664;28;20057;-55
2024/04/01 07:46:45;;;;;;;13.35;6.53;;;;;;;;;;5134880;28;20059;-57
2024/04/01 07:49:11;;;;;;;10.63;5.83;;;;;;;;;;5134844;28;20043;-58
2024/04/01 07:51:36;;;;;;;10.63;6.45;;;;;;;;;;5121932;28;20284;-58
2024/04/01 07:54:02;;;;;;;10.82;6.45;;;;;;;;;;5129067;28;20031;-56
2024/04/01 07:56:28;;;;;;;10.30;6.25;;;;;;;;;;5134154;28;20035;-56
2024/04/01 07:58:54;;;;;;;10.80;7.10;;;;;;;;;;5134607;28;20040;-60
2024/04/01 08:01:19;;;;;;;12.85;6.55;;;;;;;;;;5134460;28;20059;-59
2024/04/01 08:03:45;;;;;;;11.23;7.18;;;;;;;;;;5130881;28;20031;-57
2024/04/01 08:06:11;;;;;;;11.82;7.45;;;;;;;;;;5121450;28;20091;-59
2024/04/01 08:08:37;;;;;;;14.43;7.75;;;;;;;;;;5128901;28;20031;-60
2024/04/01 08:11:03;;;;;;;11.35;7.70;;;;;;;;;;5130772;28;20168;-59
2024/04/01 08:13:29;;;;;;;14.35;7.18;;;;;;;;;;5130542;28;20039;-59
2024/04/01 08:16:01;;;;;;;14.03;8.10;;;;;;;;;;5136765;28;20084;-60
2024/04/01 08:18:27;;;;;;;13.20;7.87;;;;;;;;;;5130689;28;20281;-57
2024/04/01 08:20:52;;;;;;;12.52;7.63;;;;;;;;;;5133673;28;20276;-60
2024/04/01 08:23:17;;;;;;;9.83;6.80;;;;;;;;;;5128624;28;20032;-59
2024/04/01 08:25:43;;;;;;;12.43;7.23;;;;;;;;;;5138262;28;20020;-59
2024/04/01 08:28:09;;;;;;;10.63;6.72;;;;;;;;;;5131966;28;20035;-58
2024/04/01 08:30:34;;;;;;;9.87;6.70;;;;;;;;;;5136303;28;20032;-58
2024/04/01 08:33:00;;;;;;;9.60;6.80;;;;;;;;;;5133868;28;20256;-58
2024/04/01 08:35:26;;;;;;;11.77;6.83;;;;;;;;;;5137908;28;20043;-59
2024/04/01 08:37:51;;;;;;;13.02;6.97;;;;;;;;;;5137830;28;20278;-59
2024/04/01 08:40:17;;;;;;;11.10;7.20;;;;;;;;;;5132675;28;20040;-58
2024/04/01 08:42:44;;;;;;;12.02;7.38;;;;;;;;;;5130526;28;20063;-59
2024/04/01 08:45:12;;;;;;;15.87;6.63;;;;;;;;;;5131166;28;20031;-57
2024/04/01 08:47:40;;;;;;;9.07;6.07;;;;;;;;;;5131511;28;20263;-59
2024/04/01 08:50:10;;;;;;;9.10;6.07;;;;;;;;;;5137257;28;20301;-57
2024/04/01 08:52:47;;;;;;;9.00;6.20;;;;;;;;;;5127854;28;20265;-60
2024/04/01 08:55:13;;;;;;;11.40;6.83;;;;;;;;;;5137703;28;20256;-60
2024/04/01 08:57:39;;;;;;;15.55;6.65;;;;;;;;;;5123757;28;20260;-59
2024/04/01 09:00:06;;;;;;;10.32;6.65;;;;;;;;;;5137000;28;20036;-59
2024/04/01 09:02:32;;;;;;;10.53;6.40;;;;;;;;;;5130355;28;20055;-60
2024/04/01 09:04:58;;;;;;;9.85;5.95;;;;;;;;;;5131650;27;20279;-58
2024/04/01 09:07:23;;;;;;;11.27;6.90;;;;;;;;;;5140254;27;20039;-58
2024/04/01 09:09:49;;;;;;;9.00;5.90;;;;;;;;;;5137547;28;20027;-58
2024/04/01 09:12:15;;;;;;;7.80;5.70;;;;;;;;;;5127172;28;20087;-58
2024/04/01 09:14:41;;;;;;;10.15;6.22;;;;;;;;;;5133554;28;20031;-58
2024/04/01 09:17:06;;;;;;;9.93;6.40;;;;;;;;;;5123513;28;20119;-57
2024/04/01 09:19:31;;;;;;;10.10;6.00;;;;;;;;;;5136671;28;20067;-57
2024/04/01 09:22:01;;;;;;;7.60;5.50;;;;;;;;;;5126098;28;20039;-57
2024/04/01 09:24:27;;;;;;;7.93;5.20;;;;;;;;;;5136694;28;20031;-56
2024/04/01 09:26:52;;;;;;;9.00;5.00;;;;;;;;;;5133877;28;20264;-59
2024/04/01 09:29:20;;;;;;;6.80;4.50;;;;;;;;;;5110014;28;20047;-57
2024/04/01 09:31:46;;;;;;;12.77;4.73;;;;;;;;;;5129433;28;20035;-56
2024/04/01 09:34:12;;;;;;;9.13;4.60;;;;;;;;;;5130324;28;20264;-58
2024/04/01 09:36:37;;;;;;;8.90;4.23;;;;;;;;;;5136386;28;20100;-58
2024/04/01 09:39:04;;;;;;;7.68;5.10;;;;;;;;;;5136872;28;20050;-59
2024/04/01 09:41:29;;;;;;;7.10;4.32;;;;;;;;;;5133385;28;20046;-58
2024/04/01 09:43:58;;;;;;;9.10;5.13;;;;;;;;;;5130636;28;20032;-55
2024/04/01 09:46:24;;;;;;;8.93;5.67;;;;;;;;;;5124169;28;20019;-56
2024/04/01 09:48:50;;;;;;;7.70;5.00;;;;;;;;;;5126379;28;20256;-58
2024/04/01 09:51:18;;;;;;;8.98;5.30;;;;;;;;;;5133571;28;20027;-57
2024/04/01 09:53:43;;;;;;;8.63;5.60;;;;;;;;;;5134581;28;20050;-54
2024/04/01 09:56:27;;;;;;;9.20;6.53;;;;;;;;;;5116049;28;20328;-57
2024/04/01 09:59:02;;;;;;;13.80;6.30;;;;;;;;;;5135942;28;20340;-59
2024/04/01 10:01:36;;;;;;;11.00;6.70;;;;;;;;;;5117371;28;20264;-57
2024/04/01 10:04:02;;;;;;;10.23;6.27;;;;;;;;;;5130386;28;20273;-59
2024/04/01 10:06:34;;;;;;;9.98;6.78;;;;;;;;;;5118382;28;20263;-57
2024/04/01 10:09:18;;;;;;;12.63;7.60;;;;;;;;;;5135962;28;20087;-55
2024/04/01 10:11:49;;;;;;;9.97;7.10;;;;;;;;;;5128402;28;20277;-57
2024/04/01 10:14:25;;;;;;;12.23;7.60;;;;;;;;;;5117680;28;20264;-56
2024/04/01 10:17:06;;;;;;;15.83;8.37;;;;;;;;;;5135594;28;20291;-57
2024/04/01 10:19:50;;;;;;;12.87;8.20;;;;;;;;;;5135919;28;20272;-59
2024/04/01 10:22:35;;;;;;;10.07;6.97;;;;;;;;;;5130078;28;20252;-59
2024/04/01 10:25:16;;;;;;;14.33;7.67;;;;;;;;;;5110187;28;20276;-56
2024/04/01 10:27:47;;;;;;;16.87;7.60;;;;;;;;;;5135429;28;20266;-59
2024/04/01 10:30:13;;;;;;;12.50;6.70;;;;;;;;;;5132298;28;20269;-59
2024/04/01 10:32:52;;;;;;;18.85;8.55;;;;;;;;;;5131814;28;20260;-58
2024/04/01 10:35:17;;;;;;;18.27;7.20;;;;;;;;;;5135727;28;20067;-59
2024/04/01 10:38:00;;;;;;;10.40;5.23;;;;;;;;;;5135355;28;20369;-58
2024/04/01 10:40:28;;;;;;;13.43;5.07;;;;;;;;;;5135578;28;20036;-59
2024/04/01 10:42:54;;;;;;;13.77;5.03;;;;;;;;;;5130349;28;20313;-61
2024/04/01 10:45:25;;;;;;;16.10;5.60;;;;;;;;;;5135677;28;20280;-56
2024/04/01 10:47:57;;;;;;;10.53;4.70;;;;;;;;;;5135833;28;20091;-59
2024/04/01 10:50:34;;;;;;;11.67;5.07;;;;;;;;;;5135561;28;20286;-60
2024/04/01 10:53:00;;;;;;;15.53;6.00;;;;;;;;;;5111866;28;20256;-58
2024/04/01 10:55:31;;;;;;;14.88;5.47;;;;;;;;;;5130720;28;20306;-58
2024/04/01 10:58:17;;;;;;;9.50;4.50;;;;;;;;;;5119943;28;20028;-60
2024/04/01 11:00:45;;;;;;;11.77;4.57;;;;;;;;;;5129883;28;20324;-57
2024/04/01 11:03:18;;;;;;;11.10;4.70;;;;;;;;;;5127390;28;20241;-59
2024/04/01 11:05:55;;;;;;;14.23;4.50;;;;;;;;;;5124151;28;20334;-58
2024/04/01 11:08:34;;;;;;;16.70;4.37;;;;;;;;;;5135388;28;20281;-57
2024/04/01 11:11:03;;;;;;;14.03;4.03;;;;;;;;;;5135066;28;20264;-57
2024/04/01 11:13:30;;;;;;;16.40;3.37;;;;;;;;;;5125505;28;20257;-58
2024/04/01 11:15:56;;;;;;;12.07;3.67;;;;;;;;;;5134994;28;20275;-57
2024/04/01 11:18:21;;;;;;;;;;;;;;;;;;5121798;28;20252;-58
2024/04/01 11:20:55;;;;;;;11.68;4.13;;;;;;;;;;5122286;28;19920;-57
2024/04/01 11:23:39;;;;;;;13.43;3.67;;;;;;;;;;5128566;28;20056;-57
2024/04/01 11:26:05;;;;;;;18.63;4.27;;;;;;;;;;5130644;28;20311;-57
2024/04/01 11:28:49;;;;;;;8.27;3.00;;;;;;;;;;5134916;28;20268;-57
2024/04/01 11:31:19;;;;;;;9.03;3.30;;;;;;;;;;5134825;28;20259;-57
2024/04/01 11:33:57;;;;;;;13.47;4.70;;;;;;;;;;5128380;28;20268;-59
2024/04/01 11:36:27;;;;;;;8.63;3.33;;;;;;;;;;5134997;28;20260;-58
2024/04/01 11:38:59;;;;;;;13.93;3.47;;;;;;;;;;5135104;28;20266;-59
2024/04/01 11:41:25;;;;;;;7.87;2.83;;;;;;;;;;5135623;28;20260;-58
2024/04/01 11:43:50;;;;;;;9.00;3.00;;;;;;;;;;5132990;28;20302;-58
2024/04/01 11:46:17;;;;;;;9.85;3.22;;;;;;;;;;5135498;27;20011;-59
2024/04/01 11:48:42;;;;;;;7.60;3.63;;;;;;;;;;5146531;27;20095;-56
2024/04/01 11:51:09;;;;;;;12.80;4.03;;;;;;;;;;5138604;28;20027;-58
2024/04/01 11:53:34;;;;;;;;;;;;;;;;;;5134832;28;20035;-58
2024/04/01 11:56:00;;;;;;;13.10;4.07;;;;;;;;;;5130618;28;19915;-58
2024/04/01 11:58:25;;;;;;;14.33;3.17;;;;;;;;;;5137613;28;20091;-59
2024/04/01 12:00:54;;;;;;;5.45;2.90;;;;;;;;;;5138437;28;20035;-58
2024/04/01 12:03:20;;;;;;;11.47;2.67;;;;;;;;;;5135688;28;20047;-58
2024/04/01 12:05:52;;;;;;;13.07;4.32;;;;;;;;;;5131938;28;20043;-58
2024/04/01 12:08:22;;;;;;;6.40;3.03;;;;;;;;;;5138463;28;20038;-58
2024/04/01 12:10:48;;;;;;;5.60;2.40;;;;;;;;;;5138338;28;20039;-59
2024/04/01 12:13:14;;;;;;;8.77;3.30;;;;;;;;;;5131370;28;20111;-57
2024/04/01 12:15:42;;;;;;;7.13;3.07;;;;;;;;;;5137129;28;20168;-57
2024/04/01 12:18:10;;;;;;;7.90;3.03;;;;;;;;;;5133432;28;20032;-57
2024/04/01 12:20:39;;;;;;;10.63;3.70;;;;;;;;;;5128032;28;20038;-59
2024/04/01 12:23:05;;;;;;;8.90;3.80;;;;;;;;;;5127910;28;20039;-58
2024/04/01 12:25:30;;;;;;;5.22;2.67;;;;;;;;;;5112984;28;20096;-59
2024/04/01 12:27:57;;;;;;;7.77;3.00;;;;;;;;;;5137814;28;20032;-59
2024/04/01 12:30:22;;;;;;;5.80;3.20;;;;;;;;;;5137967;28;20042;-58
2024/04/01 12:32:48;;;;;;;7.22;3.17;;;;;;;;;;5137296;28;20028;-57
2024/04/01 12:35:14;;;;;;;5.00;2.50;;;;;;;;;;5135737;28;20079;-59
2024/04/01 12:37:42;;;;;;;6.05;2.30;;;;;;;;;;5133707;28;20031;-60
2024/04/01 12:40:08;;;;;;;5.77;1.93;;;;;;;;;;5132403;28;20074;-58
2024/04/01 12:42:37;;;;;;;10.60;2.47;;;;;;;;;;5130884;28;20053;-56
2024/04/01 12:45:09;;;;;;;5.13;1.90;;;;;;;;;;5136693;28;20031;-57
2024/04/01 12:47:35;;;;;;;7.67;2.23;;;;;;;;;;5136114;28;20027;-57
2024/04/01 12:50:01;;;;;;;;;;;;;;;;;;5126026;28;20056;-58
2024/04/01 12:52:34;;;;;;;9.87;3.97;;;;;;;;;;5137130;28;19908;-59
2024/04/01 12:55:11;;;;;;;13.83;4.50;;;;;;;;;;5136100;28;20023;-58
2024/04/01 12:57:43;;;;;;;5.10;2.07;;;;;;;;;;5134199;28;20042;-56
2024/04/01 13:00:11;;;;;;;7.20;2.30;;;;;;;;;;5127870;28;20035;-59
2024/04/01 13:02:39;;;;;;;11.53;4.23;;;;;;;;;;5137215;28;20028;-56
2024/04/01 13:05:11;;;;;;;9.17;3.33;;;;;;;;;;5130951;28;20070;-58
2024/04/01 13:08:03;;;;;;;3.57;2.07;;;;;;;;;;5135366;28;20767;-57
2024/04/01 13:10:58;;;;;;;6.20;3.07;;;;;;;;;;5124850;28;20032;-56
2024/04/01 13:13:43;;;;;;;14.13;5.40;;;;;;;;;;5054910;28;20064;-57
2024/04/01 13:16:27;;;;;;;9.90;3.10;;;;;;;;;;5127882;28;20019;-55
2024/04/01 13:19:12;;;;;;;7.23;2.80;;;;;;;;;;5134443;28;20027;-59
2024/04/01 13:22:00;;;;;;;4.33;1.90;;;;;;;;;;5122232;28;20032;-57
2024/04/01 13:24:30;;;;;;;7.57;2.17;;;;;;;;;;5116843;28;20027;-59
2024/04/01 13:26:58;;;;;;;4.43;2.17;;;;;;;;;;5127350;28;20023;-58
2024/04/01 13:29:31;;;;;;;5.60;2.60;;;;;;;;;;5136813;28;20043;-59
2024/04/01 13:32:12;;;;;;;6.13;2.70;;;;;;;;;;5136540;28;20028;-60
2024/04/01 13:34:45;;;;;;;4.70;2.07;;;;;;;;;;5126026;28;20055;-58
2024/04/01 13:37:11;;;;;;;6.50;2.03;;;;;;;;;;5132973;28;20037;-57
2024/04/01 13:40:00;;;;;;;5.07;2.67;;;;;;;;;;5118599;28;20035;-57
2024/04/01 13:42:31;;;;;;;6.07;3.17;;;;;;;;;;5129001;28;20023;-57
2024/04/01 13:45:07;;;;;;;4.93;2.33;;;;;;;;;;5134797;28;20039;-58
2024/04/01 13:47:35;;;;;;;5.87;2.77;;;;;;;;;;5128864;28;20032;-58
2024/04/01 13:50:10;;;;;;;6.00;3.13;;;;;;;;;;5127456;28;20023;-57
2024/04/01 13:52:39;;;;;;;5.57;3.10;;;;;;;;;;5136093;28;20035;-60
2024/04/01 13:55:13;;;;;;;10.70;3.77;;;;;;;;;;5112125;28;20028;-59
2024/04/01 13:58:17;;;;;;;5.07;3.00;;;;;;;;;;5132992;28;20096;-58
2024/04/01 14:01:02;;;;;;;8.07;4.50;;;;;;;;;;5029036;28;20068;-59
2024/04/01 14:03:34;;;;;;;7.00;3.10;;;;;;;;;;5032160;28;20101;-58
2024/04/01 14:06:14;;;;;;;8.20;3.70;;;;;;;;;;5092677;28;20082;-57
2024/04/01 14:08:48;;;;;;;4.13;2.77;;;;;;;;;;5111154;28;20024;-59
2024/04/01 14:11:16;;;;;;;7.83;3.13;;;;;;;;;;5131744;28;20031;-59
2024/04/01 14:13:51;;;;;;;3.53;2.63;;;;;;;;;;5127436;28;20035;-58
2024/04/01 14:16:16;;;;;;;4.80;2.80;;;;;;;;;;5127403;28;20086;-59
2024/04/01 14:19:00;;;;;;;4.13;2.40;;;;;;;;;;5135746;28;20619;-57
2024/04/01 14:21:26;;;;;;;7.67;2.50;;;;;;;;;;5134289;28;20036;-59
2024/04/01 14:23:51;;;;;;;4.18;2.55;;;;;;;;;;5133401;28;20099;-59
2024/04/01 14:26:17;;;;;;;7.15;2.92;;;;;;;;;;5123365;28;20028;-58
2024/04/01 14:28:43;;;;;;;9.57;3.03;;;;;;;;;;5134805;28;20019;-57
2024/04/01 14:31:08;;;;;;;5.50;2.70;;;;;;;;;;5117692;28;20038;-60
2024/04/01 14:33:34;;;;;;;5.18;2.63;;;;;;;;;;5134543;28;20043;-60
2024/04/01 14:36:00;;;;;;;6.20;2.53;;;;;;;;;;5132446;28;20065;-59
2024/04/01 14:38:25;;;;;;;4.60;2.20;;;;;;;;;;5130707;28;20099;-59
2024/04/01 14:40:51;;;;;;;2.80;2.10;;;;;;;;;;5123688;28;20047;-57
2024/04/01 14:43:17;;;;;;;3.72;2.25;;;;;;;;;;5134357;28;20247;-59